logo
Search for airport 
image banner adimage banner adimage banner ad
image banner ad

FABARK - Barkley West

Located in , South Africa

ICAO - , IATA -

Data provided by Airmate  

General information

Coordinates: S28°31'37" E24°32'23"
Elevation is 3658 feet MSL.
 
View others Airports in Northern Cape

Operational data

Special qualification required
Current time UTC:
Current local time:
Weather at : FAKM - Kimberley ( 38 km )
METAR: FAKM 230400Z 32005KT CAVOK 11/08 Q1020
TAF: TAF FAKM 230300Z 2304/2315 VRB03KT CAVOK TX30/2312Z TN11/2304Z
View NOTAMs / SUP AIP / TFR affecting this airport [VIEW]
Communications frequencies: [VIEW]

Runways:

RWY identifierQFULength (ft)Width (ft)SurfaceLDA (ft)
04150°459366SAND
22330°459366SAND

Airport contact information

Address: South Africa

Satellite view of FABARK